sensor_id;sensor_type;location;lat;lon;timestamp;P1;durP1;ratioP1;P2;durP2;ratioP2
13222;SDS011;6676;45.192;5.722;2023-06-05T00:01:10;3.62;;;2.10;;
13222;SDS011;6676;45.192;5.722;2023-06-05T00:04:02;3.75;;;2.12;;
13222;SDS011;6676;45.192;5.722;2023-06-05T00:06:53;4.08;;;2.10;;
13222;SDS011;6676;45.192;5.722;2023-06-05T00:09:46;4.67;;;2.17;;
13222;SDS011;6676;45.192;5.722;2023-06-05T00:12:37;3.05;;;2.20;;
13222;SDS011;6676;45.192;5.722;2023-06-05T00:15:29;5.05;;;2.40;;
13222;SDS011;6676;45.192;5.722;2023-06-05T00:18:22;4.83;;;2.52;;
13222;SDS011;6676;45.192;5.722;2023-06-05T00:21:14;5.08;;;2.70;;
13222;SDS011;6676;45.192;5.722;2023-06-05T00:24:06;3.47;;;2.62;;
13222;SDS011;6676;45.192;5.722;2023-06-05T00:26:58;5.58;;;2.62;;
13222;SDS011;6676;45.192;5.722;2023-06-05T00:29:49;3.58;;;2.50;;
13222;SDS011;6676;45.192;5.722;2023-06-05T00:32:41;3.92;;;3.27;;
13222;SDS011;6676;45.192;5.722;2023-06-05T00:35:32;4.15;;;3.75;;
13222;SDS011;6676;45.192;5.722;2023-06-05T00:38:24;6.42;;;3.75;;
13222;SDS011;6676;45.192;5.722;2023-06-05T00:41:15;5.37;;;3.90;;
13222;SDS011;6676;45.192;5.722;2023-06-05T00:44:07;4.87;;;4.10;;
13222;SDS011;6676;45.192;5.722;2023-06-05T00:46:58;5.10;;;4.60;;
13222;SDS011;6676;45.192;5.722;2023-06-05T00:49:51;5.47;;;4.50;;
13222;SDS011;6676;45.192;5.722;2023-06-05T00:52:43;6.00;;;4.87;;
13222;SDS011;6676;45.192;5.722;2023-06-05T00:55:35;8.13;;;6.05;;
13222;SDS011;6676;45.192;5.722;2023-06-05T00:58:27;6.37;;;5.55;;
13222;SDS011;6676;45.192;5.722;2023-06-05T01:01:20;6.05;;;5.33;;
13222;SDS011;6676;45.192;5.722;2023-06-05T01:04:13;5.45;;;4.80;;
13222;SDS011;6676;45.192;5.722;2023-06-05T01:07:04;6.92;;;5.22;;
13222;SDS011;6676;45.192;5.722;2023-06-05T01:09:57;5.80;;;4.95;;
13222;SDS011;6676;45.192;5.722;2023-06-05T01:12:51;5.15;;;4.12;;
13222;SDS011;6676;45.192;5.722;2023-06-05T01:15:45;4.65;;;3.90;;
13222;SDS011;6676;45.192;5.722;2023-06-05T01:18:37;4.53;;;3.83;;
13222;SDS011;6676;45.192;5.722;2023-06-05T01:21:29;4.30;;;3.75;;
13222;SDS011;6676;45.192;5.722;2023-06-05T01:24:21;4.25;;;3.85;;
13222;SDS011;6676;45.192;5.722;2023-06-05T01:27:14;5.03;;;3.80;;
13222;SDS011;6676;45.192;5.722;2023-06-05T01:30:09;4.95;;;3.60;;
13222;SDS011;6676;45.192;5.722;2023-06-05T01:33:07;5.67;;;3.65;;
13222;SDS011;6676;45.192;5.722;2023-06-05T01:36:01;4.28;;;3.50;;
13222;SDS011;6676;45.192;5.722;2023-06-05T01:38:53;3.98;;;3.42;;
13222;SDS011;6676;45.192;5.722;2023-06-05T01:41:46;2.87;;;2.58;;
13222;SDS011;6676;45.192;5.722;2023-06-05T01:44:38;5.20;;;2.47;;
13222;SDS011;6676;45.192;5.722;2023-06-05T01:47:31;4.03;;;2.00;;
13222;SDS011;6676;45.192;5.722;2023-06-05T01:50:23;3.05;;;2.27;;
13222;SDS011;6676;45.192;5.722;2023-06-05T01:53:15;2.25;;;1.82;;
13222;SDS011;6676;45.192;5.722;2023-06-05T01:56:08;3.98;;;2.02;;
13222;SDS011;6676;45.192;5.722;2023-06-05T01:59:01;2.87;;;1.45;;
13222;SDS011;6676;45.192;5.722;2023-06-05T02:01:55;2.92;;;1.30;;
13222;SDS011;6676;45.192;5.722;2023-06-05T02:04:47;1.67;;;1.20;;
13222;SDS011;6676;45.192;5.722;2023-06-05T02:07:43;2.80;;;1.60;;
13222;SDS011;6676;45.192;5.722;2023-06-05T02:10:40;3.55;;;1.67;;
13222;SDS011;6676;45.192;5.722;2023-06-05T02:13:32;2.60;;;1.92;;
13222;SDS011;6676;45.192;5.722;2023-06-05T02:16:28;3.15;;;2.27;;
13222;SDS011;6676;45.192;5.722;2023-06-05T02:19:21;5.78;;;2.10;;
13222;SDS011;6676;45.192;5.722;2023-06-05T02:22:15;4.15;;;1.80;;
13222;SDS011;6676;45.192;5.722;2023-06-05T02:25:09;3.40;;;2.12;;
13222;SDS011;6676;45.192;5.722;2023-06-05T02:28:02;1.85;;;1.20;;
13222;SDS011;6676;45.192;5.722;2023-06-05T02:30:54;1.95;;;1.25;;
13222;SDS011;6676;45.192;5.722;2023-06-05T02:33:49;2.85;;;1.40;;
13222;SDS011;6676;45.192;5.722;2023-06-05T02:36:44;3.52;;;1.45;;
13222;SDS011;6676;45.192;5.722;2023-06-05T02:39:38;1.87;;;0.93;;
13222;SDS011;6676;45.192;5.722;2023-06-05T02:42:32;3.02;;;1.37;;
13222;SDS011;6676;45.192;5.722;2023-06-05T02:45:25;2.37;;;1.10;;
13222;SDS011;6676;45.192;5.722;2023-06-05T02:48:18;3.45;;;1.30;;
13222;SDS011;6676;45.192;5.722;2023-06-05T02:51:16;2.17;;;1.07;;
13222;SDS011;6676;45.192;5.722;2023-06-05T02:54:13;1.75;;;1.17;;
13222;SDS011;6676;45.192;5.722;2023-06-05T02:56:52;3.25;;;1.37;;
13222;SDS011;6676;45.192;5.722;2023-06-05T02:59:44;2.90;;;1.47;;
13222;SDS011;6676;45.192;5.722;2023-06-05T03:02:37;3.37;;;1.40;;
13222;SDS011;6676;45.192;5.722;2023-06-05T03:05:28;1.20;;;1.10;;
13222;SDS011;6676;45.192;5.722;2023-06-05T03:08:21;2.98;;;1.55;;
13222;SDS011;6676;45.192;5.722;2023-06-05T03:11:12;3.02;;;1.42;;
13222;SDS011;6676;45.192;5.722;2023-06-05T03:14:04;3.33;;;1.05;;
13222;SDS011;6676;45.192;5.722;2023-06-05T03:16:56;4.65;;;1.42;;
13222;SDS011;6676;45.192;5.722;2023-06-05T03:19:49;0.93;;;0.80;;
13222;SDS011;6676;45.192;5.722;2023-06-05T03:22:41;2.47;;;1.10;;
13222;SDS011;6676;45.192;5.722;2023-06-05T03:25:32;2.92;;;1.10;;
13222;SDS011;6676;45.192;5.722;2023-06-05T03:28:23;1.17;;;1.07;;
13222;SDS011;6676;45.192;5.722;2023-06-05T03:31:16;2.52;;;1.00;;
13222;SDS011;6676;45.192;5.722;2023-06-05T03:34:09;1.42;;;1.00;;
13222;SDS011;6676;45.192;5.722;2023-06-05T03:37:01;2.77;;;1.30;;
13222;SDS011;6676;45.192;5.722;2023-06-05T03:39:53;2.98;;;0.98;;
13222;SDS011;6676;45.192;5.722;2023-06-05T03:42:44;1.75;;;1.00;;
13222;SDS011;6676;45.192;5.722;2023-06-05T03:45:37;1.52;;;1.20;;
13222;SDS011;6676;45.192;5.722;2023-06-05T03:48:30;3.62;;;1.42;;
13222;SDS011;6676;45.192;5.722;2023-06-05T03:51:22;3.85;;;1.30;;
13222;SDS011;6676;45.192;5.722;2023-06-05T03:54:15;3.17;;;1.30;;
13222;SDS011;6676;45.192;5.722;2023-06-05T03:57:07;3.35;;;1.30;;
13222;SDS011;6676;45.192;5.722;2023-06-05T04:00:00;2.85;;;1.35;;
13222;SDS011;6676;45.192;5.722;2023-06-05T04:02:53;2.17;;;1.32;;
13222;SDS011;6676;45.192;5.722;2023-06-05T04:05:47;4.10;;;1.80;;
13222;SDS011;6676;45.192;5.722;2023-06-05T04:08:38;3.58;;;1.82;;
13222;SDS011;6676;45.192;5.722;2023-06-05T04:11:29;3.67;;;2.55;;
13222;SDS011;6676;45.192;5.722;2023-06-05T04:14:22;3.62;;;2.00;;
13222;SDS011;6676;45.192;5.722;2023-06-05T04:17:14;2.85;;;1.85;;
13222;SDS011;6676;45.192;5.722;2023-06-05T04:20:07;1.87;;;1.20;;
13222;SDS011;6676;45.192;5.722;2023-06-05T04:23:01;2.65;;;1.45;;
13222;SDS011;6676;45.192;5.722;2023-06-05T04:25:53;1.67;;;1.32;;
13222;SDS011;6676;45.192;5.722;2023-06-05T04:28:45;2.25;;;1.32;;
13222;SDS011;6676;45.192;5.722;2023-06-05T04:31:38;2.62;;;1.12;;
13222;SDS011;6676;45.192;5.722;2023-06-05T04:34:31;1.37;;;1.27;;
13222;SDS011;6676;45.192;5.722;2023-06-05T04:37:23;2.15;;;1.35;;
13222;SDS011;6676;45.192;5.722;2023-06-05T04:40:15;2.25;;;1.37;;
13222;SDS011;6676;45.192;5.722;2023-06-05T04:43:09;2.70;;;1.50;;
13222;SDS011;6676;45.192;5.722;2023-06-05T04:46:01;1.35;;;1.15;;
13222;SDS011;6676;45.192;5.722;2023-06-05T04:48:54;5.25;;;1.57;;
13222;SDS011;6676;45.192;5.722;2023-06-05T04:51:46;3.35;;;1.55;;
13222;SDS011;6676;45.192;5.722;2023-06-05T04:54:37;3.50;;;1.67;;
13222;SDS011;6676;45.192;5.722;2023-06-05T04:57:29;5.65;;;1.95;;
13222;SDS011;6676;45.192;5.722;2023-06-05T05:00:22;1.70;;;1.50;;
13222;SDS011;6676;45.192;5.722;2023-06-05T05:03:14;3.47;;;1.90;;
13222;SDS011;6676;45.192;5.722;2023-06-05T05:06:08;2.75;;;1.98;;
13222;SDS011;6676;45.192;5.722;2023-06-05T05:08:59;4.58;;;1.72;;
13222;SDS011;6676;45.192;5.722;2023-06-05T05:11:54;3.80;;;1.90;;
13222;SDS011;6676;45.192;5.722;2023-06-05T05:14:45;2.80;;;1.65;;
13222;SDS011;6676;45.192;5.722;2023-06-05T05:17:36;2.20;;;1.75;;
13222;SDS011;6676;45.192;5.722;2023-06-05T05:20:28;4.25;;;1.92;;
13222;SDS011;6676;45.192;5.722;2023-06-05T05:23:21;4.08;;;2.00;;
13222;SDS011;6676;45.192;5.722;2023-06-05T05:26:12;5.45;;;2.27;;
13222;SDS011;6676;45.192;5.722;2023-06-05T05:28:53;4.10;;;2.20;;
13222;SDS011;6676;45.192;5.722;2023-06-05T05:31:44;4.70;;;2.30;;
13222;SDS011;6676;45.192;5.722;2023-06-05T05:34:36;2.83;;;2.40;;
13222;SDS011;6676;45.192;5.722;2023-06-05T05:37:16;4.20;;;2.30;;
13222;SDS011;6676;45.192;5.722;2023-06-05T05:40:09;3.20;;;2.40;;
13222;SDS011;6676;45.192;5.722;2023-06-05T05:43:01;2.83;;;2.15;;
13222;SDS011;6676;45.192;5.722;2023-06-05T05:45:53;2.40;;;2.17;;
13222;SDS011;6676;45.192;5.722;2023-06-05T05:48:44;3.05;;;2.50;;
13222;SDS011;6676;45.192;5.722;2023-06-05T05:51:36;3.52;;;2.83;;
13222;SDS011;6676;45.192;5.722;2023-06-05T05:54:28;3.52;;;2.70;;
13222;SDS011;6676;45.192;5.722;2023-06-05T05:57:20;7.25;;;2.80;;
13222;SDS011;6676;45.192;5.722;2023-06-05T06:00:13;2.67;;;2.10;;
13222;SDS011;6676;45.192;5.722;2023-06-05T06:03:06;2.92;;;2.30;;
13222;SDS011;6676;45.192;5.722;2023-06-05T06:05:57;2.72;;;2.50;;
13222;SDS011;6676;45.192;5.722;2023-06-05T06:11:30;4.60;;;2.50;;
13222;SDS011;6676;45.192;5.722;2023-06-05T06:14:22;4.83;;;2.77;;
13222;SDS011;6676;45.192;5.722;2023-06-05T06:17:14;5.50;;;2.70;;
13222;SDS011;6676;45.192;5.722;2023-06-05T06:20:05;4.70;;;2.75;;
13222;SDS011;6676;45.192;5.722;2023-06-05T06:22:59;3.55;;;3.00;;
13222;SDS011;6676;45.192;5.722;2023-06-05T06:25:53;4.10;;;2.90;;
13222;SDS011;6676;45.192;5.722;2023-06-05T06:28:48;5.05;;;3.02;;
13222;SDS011;6676;45.192;5.722;2023-06-05T06:31:39;3.95;;;2.80;;
13222;SDS011;6676;45.192;5.722;2023-06-05T06:34:31;8.85;;;4.62;;
13222;SDS011;6676;45.192;5.722;2023-06-05T06:37:23;4.75;;;3.10;;
13222;SDS011;6676;45.192;5.722;2023-06-05T06:40:14;5.33;;;3.42;;
13222;SDS011;6676;45.192;5.722;2023-06-05T06:43:06;5.22;;;2.70;;
13222;SDS011;6676;45.192;5.722;2023-06-05T06:45:59;5.37;;;3.20;;
13222;SDS011;6676;45.192;5.722;2023-06-05T06:48:49;3.58;;;3.05;;
13222;SDS011;6676;45.192;5.722;2023-06-05T06:54:43;4.80;;;3.17;;
13222;SDS011;6676;45.192;5.722;2023-06-05T06:57:34;3.85;;;3.17;;
13222;SDS011;6676;45.192;5.722;2023-06-05T07:00:26;6.78;;;3.30;;
13222;SDS011;6676;45.192;5.722;2023-06-05T07:03:18;5.37;;;3.10;;
13222;SDS011;6676;45.192;5.722;2023-06-05T07:06:22;3.60;;;3.30;;
13222;SDS011;6676;45.192;5.722;2023-06-05T07:09:14;6.37;;;3.20;;
13222;SDS011;6676;45.192;5.722;2023-06-05T07:14:48;3.70;;;2.40;;
13222;SDS011;6676;45.192;5.722;2023-06-05T07:17:39;4.72;;;2.20;;
13222;SDS011;6676;45.192;5.722;2023-06-05T07:20:31;5.22;;;3.80;;
13222;SDS011;6676;45.192;5.722;2023-06-05T07:23:22;6.53;;;3.90;;
13222;SDS011;6676;45.192;5.722;2023-06-05T07:26:13;5.40;;;2.72;;
13222;SDS011;6676;45.192;5.722;2023-06-05T07:29:05;3.40;;;2.60;;
13222;SDS011;6676;45.192;5.722;2023-06-05T07:31:57;2.85;;;2.45;;
13222;SDS011;6676;45.192;5.722;2023-06-05T07:34:50;3.52;;;2.12;;
13222;SDS011;6676;45.192;5.722;2023-06-05T07:37:42;3.65;;;2.30;;
13222;SDS011;6676;45.192;5.722;2023-06-05T07:40:33;3.42;;;2.40;;
13222;SDS011;6676;45.192;5.722;2023-06-05T07:43:25;3.25;;;2.10;;
13222;SDS011;6676;45.192;5.722;2023-06-05T07:46:17;2.25;;;1.47;;
13222;SDS011;6676;45.192;5.722;2023-06-05T07:49:08;3.00;;;1.77;;
13222;SDS011;6676;45.192;5.722;2023-06-05T07:51:59;1.85;;;1.70;;
13222;SDS011;6676;45.192;5.722;2023-06-05T07:54:51;2.08;;;1.62;;
13222;SDS011;6676;45.192;5.722;2023-06-05T07:57:43;1.77;;;1.65;;
13222;SDS011;6676;45.192;5.722;2023-06-05T08:00:34;3.35;;;2.00;;
13222;SDS011;6676;45.192;5.722;2023-06-05T08:03:26;2.27;;;1.77;;
13222;SDS011;6676;45.192;5.722;2023-06-05T08:06:17;3.75;;;1.95;;
13222;SDS011;6676;45.192;5.722;2023-06-05T08:09:08;2.12;;;1.90;;
13222;SDS011;6676;45.192;5.722;2023-06-05T08:12:00;3.08;;;2.20;;
13222;SDS011;6676;45.192;5.722;2023-06-05T08:14:52;3.12;;;2.27;;
13222;SDS011;6676;45.192;5.722;2023-06-05T08:17:43;2.83;;;2.15;;
13222;SDS011;6676;45.192;5.722;2023-06-05T08:20:35;3.02;;;2.02;;
13222;SDS011;6676;45.192;5.722;2023-06-05T08:23:29;3.00;;;1.77;;
13222;SDS011;6676;45.192;5.722;2023-06-05T08:26:21;3.42;;;1.90;;
13222;SDS011;6676;45.192;5.722;2023-06-05T08:29:12;2.27;;;1.80;;
13222;SDS011;6676;45.192;5.722;2023-06-05T08:34:43;2.42;;;2.00;;
13222;SDS011;6676;45.192;5.722;2023-06-05T08:37:34;2.40;;;1.82;;
13222;SDS011;6676;45.192;5.722;2023-06-05T08:40:26;2.67;;;2.00;;
13222;SDS011;6676;45.192;5.722;2023-06-05T08:43:20;2.50;;;2.20;;
13222;SDS011;6676;45.192;5.722;2023-06-05T08:46:11;2.67;;;2.00;;
13222;SDS011;6676;45.192;5.722;2023-06-05T08:49:06;3.72;;;2.00;;
13222;SDS011;6676;45.192;5.722;2023-06-05T08:52:00;4.10;;;2.30;;
13222;SDS011;6676;45.192;5.722;2023-06-05T08:54:52;2.60;;;2.22;;
13222;SDS011;6676;45.192;5.722;2023-06-05T08:57:44;2.90;;;2.00;;
13222;SDS011;6676;45.192;5.722;2023-06-05T09:00:37;3.30;;;1.90;;
13222;SDS011;6676;45.192;5.722;2023-06-05T09:03:29;2.72;;;2.20;;
13222;SDS011;6676;45.192;5.722;2023-06-05T09:06:23;4.70;;;2.00;;
13222;SDS011;6676;45.192;5.722;2023-06-05T09:09:16;2.52;;;2.33;;
13222;SDS011;6676;45.192;5.722;2023-06-05T09:12:01;3.58;;;2.70;;
13222;SDS011;6676;45.192;5.722;2023-06-05T09:14:53;2.65;;;2.40;;
13222;SDS011;6676;45.192;5.722;2023-06-05T09:17:46;2.37;;;2.02;;
13222;SDS011;6676;45.192;5.722;2023-06-05T09:20:37;2.27;;;2.08;;
13222;SDS011;6676;45.192;5.722;2023-06-05T09:23:29;2.60;;;2.20;;
13222;SDS011;6676;45.192;5.722;2023-06-05T09:26:20;2.15;;;1.95;;
13222;SDS011;6676;45.192;5.722;2023-06-05T09:29:11;4.28;;;2.25;;
13222;SDS011;6676;45.192;5.722;2023-06-05T09:32:03;4.00;;;2.52;;
13222;SDS011;6676;45.192;5.722;2023-06-05T09:34:56;4.75;;;2.50;;
13222;SDS011;6676;45.192;5.722;2023-06-05T09:37:49;2.30;;;2.10;;
13222;SDS011;6676;45.192;5.722;2023-06-05T09:40:40;2.60;;;2.33;;
13222;SDS011;6676;45.192;5.722;2023-06-05T09:43:32;3.45;;;2.20;;
13222;SDS011;6676;45.192;5.722;2023-06-05T09:46:25;4.08;;;2.22;;
13222;SDS011;6676;45.192;5.722;2023-06-05T09:49:17;2.22;;;2.00;;
13222;SDS011;6676;45.192;5.722;2023-06-05T09:52:09;2.37;;;2.10;;
13222;SDS011;6676;45.192;5.722;2023-06-05T09:55:02;2.33;;;2.12;;
13222;SDS011;6676;45.192;5.722;2023-06-05T09:57:55;2.95;;;2.10;;
13222;SDS011;6676;45.192;5.722;2023-06-05T10:00:49;2.50;;;1.95;;
13222;SDS011;6676;45.192;5.722;2023-06-05T10:03:42;2.15;;;1.90;;
13222;SDS011;6676;45.192;5.722;2023-06-05T10:06:36;4.40;;;1.90;;
13222;SDS011;6676;45.192;5.722;2023-06-05T10:09:29;3.10;;;2.20;;
13222;SDS011;6676;45.192;5.722;2023-06-05T10:12:21;2.17;;;1.75;;
13222;SDS011;6676;45.192;5.722;2023-06-05T10:15:15;2.10;;;1.90;;
13222;SDS011;6676;45.192;5.722;2023-06-05T10:18:09;2.40;;;1.82;;
13222;SDS011;6676;45.192;5.722;2023-06-05T10:21:01;3.67;;;2.12;;
13222;SDS011;6676;45.192;5.722;2023-06-05T10:23:55;3.42;;;2.10;;
13222;SDS011;6676;45.192;5.722;2023-06-05T10:27:03;3.02;;;2.20;;
13222;SDS011;6676;45.192;5.722;2023-06-05T10:33:47;4.17;;;2.22;;
13222;SDS011;6676;45.192;5.722;2023-06-05T10:40:10;2.15;;;1.87;;
13222;SDS011;6676;45.192;5.722;2023-06-05T10:46:29;2.52;;;1.87;;
13222;SDS011;6676;45.192;5.722;2023-06-05T10:49:22;3.58;;;2.20;;
13222;SDS011;6676;45.192;5.722;2023-06-05T10:52:34;2.58;;;2.10;;
13222;SDS011;6676;45.192;5.722;2023-06-05T10:55:26;2.92;;;2.30;;
13222;SDS011;6676;45.192;5.722;2023-06-05T10:58:19;2.87;;;2.08;;
13222;SDS011;6676;45.192;5.722;2023-06-05T11:01:17;3.60;;;2.20;;
13222;SDS011;6676;45.192;5.722;2023-06-05T11:04:09;2.75;;;2.00;;
13222;SDS011;6676;45.192;5.722;2023-06-05T11:07:16;2.72;;;2.10;;
13222;SDS011;6676;45.192;5.722;2023-06-05T11:10:13;3.08;;;2.33;;
13222;SDS011;6676;45.192;5.722;2023-06-05T11:13:07;3.35;;;2.75;;
13222;SDS011;6676;45.192;5.722;2023-06-05T11:15:58;2.65;;;2.45;;
13222;SDS011;6676;45.192;5.722;2023-06-05T11:18:49;3.50;;;2.35;;
13222;SDS011;6676;45.192;5.722;2023-06-05T11:22:02;2.92;;;2.30;;
13222;SDS011;6676;45.192;5.722;2023-06-05T11:28:29;3.08;;;2.30;;
13222;SDS011;6676;45.192;5.722;2023-06-05T11:31:28;2.33;;;2.10;;
13222;SDS011;6676;45.192;5.722;2023-06-05T11:34:21;3.67;;;2.00;;
13222;SDS011;6676;45.192;5.722;2023-06-05T11:37:17;3.33;;;2.27;;
13222;SDS011;6676;45.192;5.722;2023-06-05T11:40:10;2.25;;;2.05;;
13222;SDS011;6676;45.192;5.722;2023-06-05T11:43:04;3.10;;;2.27;;
13222;SDS011;6676;45.192;5.722;2023-06-05T11:45:57;2.60;;;2.40;;
13222;SDS011;6676;45.192;5.722;2023-06-05T11:48:48;3.47;;;2.47;;
13222;SDS011;6676;45.192;5.722;2023-06-05T11:51:42;2.85;;;2.30;;
13222;SDS011;6676;45.192;5.722;2023-06-05T11:54:35;3.40;;;2.65;;
13222;SDS011;6676;45.192;5.722;2023-06-05T11:57:28;2.40;;;2.20;;
13222;SDS011;6676;45.192;5.722;2023-06-05T12:00:25;2.52;;;2.30;;
13222;SDS011;6676;45.192;5.722;2023-06-05T12:03:18;2.83;;;2.52;;
13222;SDS011;6676;45.192;5.722;2023-06-05T12:06:10;3.58;;;2.87;;
13222;SDS011;6676;45.192;5.722;2023-06-05T12:09:08;4.03;;;2.47;;
13222;SDS011;6676;45.192;5.722;2023-06-05T12:12:05;5.75;;;2.52;;
13222;SDS011;6676;45.192;5.722;2023-06-05T12:14:58;2.80;;;2.60;;
13222;SDS011;6676;45.192;5.722;2023-06-05T12:18:04;3.52;;;2.77;;
13222;SDS011;6676;45.192;5.722;2023-06-05T12:20:56;3.80;;;2.98;;
13222;SDS011;6676;45.192;5.722;2023-06-05T12:23:48;4.97;;;2.90;;
13222;SDS011;6676;45.192;5.722;2023-06-05T12:26:49;3.67;;;2.98;;
13222;SDS011;6676;45.192;5.722;2023-06-05T12:29:52;9.00;;;3.15;;
13222;SDS011;6676;45.192;5.722;2023-06-05T12:32:44;7.28;;;3.47;;
13222;SDS011;6676;45.192;5.722;2023-06-05T12:35:37;6.25;;;2.90;;
13222;SDS011;6676;45.192;5.722;2023-06-05T12:38:37;3.20;;;2.90;;
13222;SDS011;6676;45.192;5.722;2023-06-05T12:41:28;4.03;;;3.00;;
13222;SDS011;6676;45.192;5.722;2023-06-05T12:44:20;4.40;;;3.00;;
13222;SDS011;6676;45.192;5.722;2023-06-05T12:47:12;3.90;;;3.00;;
13222;SDS011;6676;45.192;5.722;2023-06-05T12:50:06;5.00;;;3.15;;
13222;SDS011;6676;45.192;5.722;2023-06-05T12:53:03;3.80;;;3.10;;
13222;SDS011;6676;45.192;5.722;2023-06-05T12:55:58;3.58;;;2.90;;
13222;SDS011;6676;45.192;5.722;2023-06-05T12:58:54;5.90;;;3.25;;
13222;SDS011;6676;45.192;5.722;2023-06-05T13:01:48;5.17;;;3.22;;
13222;SDS011;6676;45.192;5.722;2023-06-05T13:04:42;4.15;;;2.90;;
13222;SDS011;6676;45.192;5.722;2023-06-05T13:07:36;3.52;;;3.10;;
13222;SDS011;6676;45.192;5.722;2023-06-05T13:10:30;4.12;;;3.27;;
13222;SDS011;6676;45.192;5.722;2023-06-05T13:13:23;6.65;;;3.10;;
13222;SDS011;6676;45.192;5.722;2023-06-05T13:16:15;9.33;;;3.90;;
13222;SDS011;6676;45.192;5.722;2023-06-05T13:19:09;7.60;;;3.60;;
13222;SDS011;6676;45.192;5.722;2023-06-05T13:22:05;7.97;;;4.00;;
13222;SDS011;6676;45.192;5.722;2023-06-05T13:24:58;5.28;;;3.30;;
13222;SDS011;6676;45.192;5.722;2023-06-05T13:27:54;3.72;;;3.25;;
13222;SDS011;6676;45.192;5.722;2023-06-05T13:30:47;4.90;;;3.45;;
13222;SDS011;6676;45.192;5.722;2023-06-05T13:33:41;6.37;;;3.45;;
13222;SDS011;6676;45.192;5.722;2023-06-05T13:36:33;4.03;;;3.05;;
13222;SDS011;6676;45.192;5.722;2023-06-05T13:39:26;4.00;;;3.37;;
13222;SDS011;6676;45.192;5.722;2023-06-05T13:42:22;4.65;;;3.25;;
13222;SDS011;6676;45.192;5.722;2023-06-05T13:45:18;4.60;;;3.50;;
13222;SDS011;6676;45.192;5.722;2023-06-05T13:48:14;3.87;;;3.50;;
13222;SDS011;6676;45.192;5.722;2023-06-05T13:51:08;4.22;;;3.05;;
13222;SDS011;6676;45.192;5.722;2023-06-05T13:54:09;6.33;;;3.27;;
13222;SDS011;6676;45.192;5.722;2023-06-05T13:57:03;4.25;;;3.40;;
13222;SDS011;6676;45.192;5.722;2023-06-05T13:59:57;4.22;;;3.12;;
13222;SDS011;6676;45.192;5.722;2023-06-05T14:02:57;4.70;;;3.47;;
13222;SDS011;6676;45.192;5.722;2023-06-05T14:05:51;3.67;;;3.08;;
13222;SDS011;6676;45.192;5.722;2023-06-05T14:08:44;3.60;;;3.30;;
13222;SDS011;6676;45.192;5.722;2023-06-05T14:11:38;3.92;;;3.52;;
13222;SDS011;6676;45.192;5.722;2023-06-05T14:14:33;4.10;;;3.70;;
13222;SDS011;6676;45.192;5.722;2023-06-05T14:17:26;3.95;;;3.52;;
13222;SDS011;6676;45.192;5.722;2023-06-05T14:20:19;3.72;;;3.40;;
13222;SDS011;6676;45.192;5.722;2023-06-05T14:23:11;3.95;;;3.47;;
13222;SDS011;6676;45.192;5.722;2023-06-05T14:26:06;4.92;;;3.30;;
13222;SDS011;6676;45.192;5.722;2023-06-05T14:31:39;3.50;;;3.20;;
13222;SDS011;6676;45.192;5.722;2023-06-05T14:34:30;5.45;;;3.60;;
13222;SDS011;6676;45.192;5.722;2023-06-05T14:37:22;4.25;;;3.70;;
13222;SDS011;6676;45.192;5.722;2023-06-05T14:40:03;3.70;;;3.40;;
13222;SDS011;6676;45.192;5.722;2023-06-05T14:42:55;3.70;;;3.40;;
13222;SDS011;6676;45.192;5.722;2023-06-05T14:45:47;4.60;;;3.00;;
13222;SDS011;6676;45.192;5.722;2023-06-05T14:48:38;3.85;;;3.55;;
13222;SDS011;6676;45.192;5.722;2023-06-05T14:51:31;4.15;;;3.55;;
13222;SDS011;6676;45.192;5.722;2023-06-05T14:54:23;4.10;;;3.40;;
13222;SDS011;6676;45.192;5.722;2023-06-05T14:57:14;4.25;;;3.45;;
13222;SDS011;6676;45.192;5.722;2023-06-05T15:00:07;3.85;;;3.02;;
13222;SDS011;6676;45.192;5.722;2023-06-05T15:03:00;3.80;;;3.37;;
13222;SDS011;6676;45.192;5.722;2023-06-05T15:05:51;3.80;;;3.15;;
13222;SDS011;6676;45.192;5.722;2023-06-05T15:08:44;4.03;;;3.17;;
13222;SDS011;6676;45.192;5.722;2023-06-05T15:14:14;3.67;;;3.22;;
13222;SDS011;6676;45.192;5.722;2023-06-05T15:17:06;3.77;;;3.47;;
13222;SDS011;6676;45.192;5.722;2023-06-05T15:19:57;3.08;;;2.85;;
13222;SDS011;6676;45.192;5.722;2023-06-05T15:22:53;4.55;;;3.42;;
13222;SDS011;6676;45.192;5.722;2023-06-05T15:25:46;4.97;;;2.85;;
13222;SDS011;6676;45.192;5.722;2023-06-05T15:28:37;4.20;;;3.08;;
13222;SDS011;6676;45.192;5.722;2023-06-05T15:31:30;4.60;;;3.35;;
13222;SDS011;6676;45.192;5.722;2023-06-05T15:34:21;3.87;;;3.58;;
13222;SDS011;6676;45.192;5.722;2023-06-05T15:37:13;3.95;;;3.50;;
13222;SDS011;6676;45.192;5.722;2023-06-05T15:40:05;5.97;;;4.05;;
13222;SDS011;6676;45.192;5.722;2023-06-05T15:43:05;4.05;;;3.62;;
13222;SDS011;6676;45.192;5.722;2023-06-05T15:45:57;4.08;;;3.27;;
13222;SDS011;6676;45.192;5.722;2023-06-05T15:48:49;3.75;;;3.25;;
13222;SDS011;6676;45.192;5.722;2023-06-05T15:51:40;5.30;;;3.50;;
13222;SDS011;6676;45.192;5.722;2023-06-05T15:54:32;4.97;;;3.65;;
13222;SDS011;6676;45.192;5.722;2023-06-05T15:57:25;4.22;;;3.83;;
13222;SDS011;6676;45.192;5.722;2023-06-05T16:00:18;5.40;;;3.90;;
13222;SDS011;6676;45.192;5.722;2023-06-05T16:03:15;4.53;;;3.90;;
13222;SDS011;6676;45.192;5.722;2023-06-05T16:06:09;4.83;;;3.95;;
13222;SDS011;6676;45.192;5.722;2023-06-05T16:09:00;4.20;;;3.80;;
13222;SDS011;6676;45.192;5.722;2023-06-05T16:11:52;4.78;;;3.80;;
13222;SDS011;6676;45.192;5.722;2023-06-05T16:14:43;4.20;;;3.80;;
13222;SDS011;6676;45.192;5.722;2023-06-05T16:17:35;7.65;;;3.80;;
13222;SDS011;6676;45.192;5.722;2023-06-05T16:20:28;5.25;;;3.67;;
13222;SDS011;6676;45.192;5.722;2023-06-05T16:23:19;3.67;;;3.30;;
13222;SDS011;6676;45.192;5.722;2023-06-05T16:26:10;4.97;;;3.80;;
13222;SDS011;6676;45.192;5.722;2023-06-05T16:29:02;3.62;;;3.10;;
13222;SDS011;6676;45.192;5.722;2023-06-05T16:31:53;3.77;;;3.30;;
13222;SDS011;6676;45.192;5.722;2023-06-05T16:34:45;4.60;;;3.37;;
13222;SDS011;6676;45.192;5.722;2023-06-05T16:37:39;5.12;;;3.37;;
13222;SDS011;6676;45.192;5.722;2023-06-05T16:40:30;3.47;;;3.17;;
13222;SDS011;6676;45.192;5.722;2023-06-05T16:43:21;3.65;;;3.35;;
13222;SDS011;6676;45.192;5.722;2023-06-05T16:46:13;6.33;;;2.85;;
13222;SDS011;6676;45.192;5.722;2023-06-05T16:51:44;3.77;;;3.30;;
13222;SDS011;6676;45.192;5.722;2023-06-05T16:54:35;5.05;;;3.00;;
13222;SDS011;6676;45.192;5.722;2023-06-05T16:57:26;3.67;;;3.37;;
13222;SDS011;6676;45.192;5.722;2023-06-05T17:00:18;4.60;;;3.22;;
13222;SDS011;6676;45.192;5.722;2023-06-05T17:03:10;4.53;;;3.10;;
13222;SDS011;6676;45.192;5.722;2023-06-05T17:06:02;5.05;;;3.37;;
13222;SDS011;6676;45.192;5.722;2023-06-05T17:08:57;3.55;;;3.20;;
13222;SDS011;6676;45.192;5.722;2023-06-05T17:11:49;3.40;;;3.00;;
13222;SDS011;6676;45.192;5.722;2023-06-05T17:14:40;4.15;;;3.60;;
13222;SDS011;6676;45.192;5.722;2023-06-05T17:17:32;4.30;;;3.70;;
13222;SDS011;6676;45.192;5.722;2023-06-05T17:20:24;3.83;;;3.25;;
13222;SDS011;6676;45.192;5.722;2023-06-05T17:23:16;4.97;;;3.65;;
13222;SDS011;6676;45.192;5.722;2023-06-05T17:26:10;3.55;;;3.25;;
13222;SDS011;6676;45.192;5.722;2023-06-05T17:29:01;3.62;;;3.33;;
13222;SDS011;6676;45.192;5.722;2023-06-05T17:31:53;3.55;;;3.25;;
13222;SDS011;6676;45.192;5.722;2023-06-05T17:34:44;4.45;;;3.22;;
13222;SDS011;6676;45.192;5.722;2023-06-05T17:37:36;4.05;;;3.60;;
13222;SDS011;6676;45.192;5.722;2023-06-05T17:40:28;4.15;;;3.70;;
13222;SDS011;6676;45.192;5.722;2023-06-05T17:43:20;3.77;;;3.42;;
13222;SDS011;6676;45.192;5.722;2023-06-05T17:46:12;3.42;;;3.12;;
13222;SDS011;6676;45.192;5.722;2023-06-05T17:49:03;3.83;;;3.50;;
13222;SDS011;6676;45.192;5.722;2023-06-05T17:51:57;5.83;;;3.30;;
13222;SDS011;6676;45.192;5.722;2023-06-05T17:54:52;4.40;;;3.20;;
13222;SDS011;6676;45.192;5.722;2023-06-05T17:57:44;4.78;;;3.25;;
13222;SDS011;6676;45.192;5.722;2023-06-05T18:00:37;5.05;;;3.20;;
13222;SDS011;6676;45.192;5.722;2023-06-05T18:03:29;5.05;;;3.75;;
13222;SDS011;6676;45.192;5.722;2023-06-05T18:06:21;4.37;;;3.50;;
13222;SDS011;6676;45.192;5.722;2023-06-05T18:09:14;4.00;;;3.60;;